createdAt,value
2023-01-02T00:00:46.544Z,9.48
2023-01-02T00:02:52.015Z,9.20
2023-01-02T00:04:55.738Z,10.68
2023-01-02T00:07:01.067Z,11.05
2023-01-02T00:09:05.226Z,10.38
2023-01-02T00:11:09.647Z,10.48
2023-01-02T00:13:13.379Z,9.65
2023-01-02T00:15:17.013Z,10.68
2023-01-02T00:17:20.845Z,10.07
2023-01-02T00:19:25.981Z,9.55
2023-01-02T00:21:30.363Z,9.70
2023-01-02T00:23:34.545Z,9.23
2023-01-02T00:25:38.663Z,8.35
2023-01-02T00:27:42.252Z,9.05
2023-01-02T00:29:45.887Z,8.73
2023-01-02T00:31:49.554Z,8.02
2023-01-02T00:33:53.356Z,7.97
2023-01-02T00:35:58.810Z,7.80
2023-01-02T00:38:02.930Z,8.18
2023-01-02T00:40:14.002Z,7.88
2023-01-02T00:42:18.162Z,8.20
2023-01-02T00:44:22.465Z,7.93
2023-01-02T00:46:26.267Z,7.72
2023-01-02T00:48:30.270Z,7.53
2023-01-02T00:50:34.090Z,7.57
2023-01-02T00:52:39.581Z,7.72
2023-01-02T00:54:43.458Z,7.30
2023-01-02T00:56:47.417Z,7.40
2023-01-02T00:58:59.946Z,7.50
2023-01-02T01:01:04.337Z,7.47
2023-01-02T01:03:08.219Z,8.05
2023-01-02T01:05:11.943Z,7.68
2023-01-02T01:07:15.576Z,8.45
2023-01-02T01:09:21.057Z,7.82
2023-01-02T01:11:25.088Z,8.43
2023-01-02T01:13:29.035Z,8.43
2023-01-02T01:15:32.798Z,7.82
2023-01-02T01:17:36.451Z,7.63
2023-01-02T01:19:40.881Z,8.13
2023-01-02T01:21:44.434Z,7.85
2023-01-02T01:23:52.299Z,8.50
2023-01-02T01:25:57.762Z,8.77
2023-01-02T01:28:01.710Z,9.38
2023-01-02T01:30:06.414Z,10.05
2023-01-02T01:32:10.446Z,9.75
2023-01-02T01:34:14.580Z,9.65
2023-01-02T01:36:19.594Z,10.85
2023-01-02T01:38:23.308Z,11.18
2023-01-02T01:40:27.112Z,12.43
2023-01-02T01:42:35.681Z,12.52
2023-01-02T01:44:44.549Z,13.40
2023-01-02T01:46:49.192Z,15.82
2023-01-02T01:49:04.406Z,17.17
2023-01-02T01:51:08.639Z,17.08
2023-01-02T01:53:18.446Z,18.38
2023-01-02T01:55:25.478Z,18.48
2023-01-02T01:57:33.640Z,18.65
2023-01-02T01:59:40.282Z,19.45
2023-01-02T02:01:45.557Z,18.88
2023-01-02T02:03:51.809Z,20.83
2023-01-02T02:05:57.649Z,19.80
2023-01-02T02:08:06.036Z,20.70
2023-01-02T02:10:13.481Z,19.63
2023-01-02T02:12:24.338Z,20.15
2023-01-02T02:14:32.876Z,21.48
2023-01-02T02:16:47.792Z,20.42
2023-01-02T02:19:34.191Z,21.88
2023-01-02T02:21:58.710Z,21.88
2023-01-02T02:24:37.441Z,21.73
2023-01-02T02:27:06.141Z,24.08
2023-01-02T02:29:58.920Z,23.42
2023-01-02T02:32:12.242Z,24.67
2023-01-02T02:34:24.276Z,24.15
2023-01-02T02:36:36.247Z,24.65
2023-01-02T02:38:55.241Z,26.92
2023-01-02T02:41:07.895Z,25.38
2023-01-02T02:43:19.107Z,25.27
2023-01-02T02:45:31.759Z,24.08
2023-01-02T02:47:44.852Z,26.02
2023-01-02T02:49:58.423Z,25.50
2023-01-02T02:52:08.667Z,25.00
2023-01-02T02:54:18.384Z,26.10
2023-01-02T02:56:27.906Z,23.98
2023-01-02T02:58:33.038Z,26.25
2023-01-02T03:00:38.412Z,24.33
2023-01-02T03:02:42.100Z,25.40
2023-01-02T03:04:47.110Z,25.95
2023-01-02T03:07:12.834Z,26.10
2023-01-02T03:09:24.436Z,25.65
2023-01-02T03:11:40.541Z,25.67
2023-01-02T03:13:57.894Z,25.23
2023-01-02T03:16:12.718Z,24.98
2023-01-02T03:18:25.031Z,23.17
2023-01-02T03:20:33.399Z,23.27
2023-01-02T03:22:41.779Z,24.67
2023-01-02T03:24:47.500Z,24.70
2023-01-02T03:26:56.769Z,25.95
2023-01-02T03:29:06.125Z,24.35
2023-01-02T03:31:17.743Z,23.02
2023-01-02T03:33:26.650Z,24.50
2023-01-02T03:35:36.475Z,24.35
2023-01-02T03:37:45.424Z,24.67
2023-01-02T03:39:53.197Z,23.00
2023-01-02T03:42:00.202Z,23.30
2023-01-02T03:44:07.537Z,23.30
2023-01-02T03:46:19.169Z,22.45
2023-01-02T03:48:32.803Z,21.63
2023-01-02T03:52:53.064Z,18.75
2023-01-02T03:54:59.514Z,17.63
2023-01-02T03:57:10.417Z,20.77
2023-01-02T03:59:22.554Z,20.05
2023-01-02T04:01:34.061Z,20.00
2023-01-02T04:03:42.854Z,22.30
2023-01-02T04:05:51.556Z,21.70
2023-01-02T04:08:00.792Z,21.55
2023-01-02T04:10:06.681Z,19.65
2023-01-02T04:12:15.442Z,19.95
2023-01-02T04:14:26.241Z,21.63
2023-01-02T04:16:35.191Z,21.75
2023-01-02T04:18:46.584Z,22.58
2023-01-02T04:20:53.560Z,21.05
2023-01-02T04:23:00.914Z,22.85
2023-01-02T04:25:11.747Z,22.80
2023-01-02T04:27:20.579Z,22.80
2023-01-02T04:29:24.487Z,22.55
2023-01-02T04:31:36.770Z,22.10
2023-01-02T04:33:44.966Z,22.17
2023-01-02T04:35:48.530Z,21.08
2023-01-02T04:37:52.817Z,22.08
2023-01-02T04:40:01.066Z,20.58
2023-01-02T04:42:04.698Z,20.70
2023-01-02T04:44:08.271Z,20.75
2023-01-02T04:46:12.112Z,20.88
2023-01-02T04:48:17.852Z,20.05
2023-01-02T04:50:21.513Z,19.92
2023-01-02T04:52:24.988Z,20.55
2023-01-02T04:54:28.655Z,19.75
2023-01-02T04:56:32.311Z,18.52
2023-01-02T04:58:36.360Z,19.30
2023-01-02T05:00:39.975Z,18.27
2023-01-02T05:02:43.801Z,19.10
2023-01-02T05:04:48.889Z,19.42
2023-01-02T05:06:52.571Z,15.02
2023-01-02T05:08:56.143Z,16.90
2023-01-02T05:10:59.842Z,15.65
2023-01-02T05:13:03.317Z,17.75
2023-01-02T05:15:09.583Z,16.52
2023-01-02T05:17:13.063Z,16.60
2023-01-02T05:19:16.864Z,17.13
2023-01-02T05:21:51.176Z,16.55
2023-01-02T05:23:54.988Z,16.35
2023-01-02T05:25:58.717Z,17.45
2023-01-02T05:28:03.119Z,17.15
2023-01-02T05:30:07.881Z,16.50
2023-01-02T05:32:11.571Z,15.52
2023-01-02T05:34:16.915Z,18.02
2023-01-02T05:36:22.878Z,16.00
2023-01-02T05:38:26.435Z,16.08
2023-01-02T05:40:29.937Z,16.80
2023-01-02T05:42:33.503Z,15.98
2023-01-02T05:44:36.807Z,15.98
2023-01-02T05:46:41.629Z,16.05
2023-01-02T05:48:45.453Z,16.85
2023-01-02T05:50:48.707Z,16.13
2023-01-02T05:52:53.419Z,15.10
2023-01-02T05:54:57.085Z,15.70
2023-01-02T05:57:00.512Z,15.68
2023-01-02T05:59:07.642Z,16.17
2023-01-02T06:01:13.571Z,16.67
2023-01-02T06:03:17.014Z,15.15
2023-01-02T06:05:20.610Z,15.25
2023-01-02T06:07:24.350Z,15.43
2023-01-02T06:09:29.521Z,14.60
2023-01-02T06:11:33.710Z,16.88
2023-01-02T06:13:39.578Z,15.05
2023-01-02T06:15:43.424Z,15.52
2023-01-02T06:17:47.159Z,15.88
2023-01-02T06:19:54.165Z,14.85
2023-01-02T06:21:57.848Z,14.15
2023-01-02T06:24:01.360Z,14.77
2023-01-02T06:26:09.025Z,14.43
2023-01-02T06:28:12.637Z,14.55
2023-01-02T06:30:16.567Z,14.80
2023-01-02T06:32:20.223Z,14.27
2023-01-02T06:34:23.866Z,15.00
2023-01-02T06:36:30.267Z,14.02
2023-01-02T06:38:34.054Z,14.27
2023-01-02T06:40:37.927Z,13.45
2023-01-02T06:42:44.885Z,13.77
2023-01-02T06:44:48.477Z,13.85
2023-01-02T06:46:52.108Z,13.63
2023-01-02T06:48:55.720Z,12.23
2023-01-02T06:50:59.821Z,11.32
2023-01-02T06:53:03.335Z,12.38
2023-01-02T06:55:07.823Z,10.75
2023-01-02T06:57:11.322Z,10.50
2023-01-02T06:59:16.343Z,11.38
2023-01-02T07:01:22.003Z,11.70
2023-01-02T07:03:25.833Z,12.35
2023-01-02T07:05:29.184Z,11.70
2023-01-02T07:07:33.214Z,12.63
2023-01-02T07:09:36.456Z,12.18
2023-01-02T07:11:40.566Z,11.10
2023-01-02T07:13:46.424Z,11.30
2023-01-02T07:15:51.170Z,12.60
2023-01-02T07:17:54.981Z,12.25
2023-01-02T07:20:01.992Z,12.45
2023-01-02T07:22:05.986Z,12.20
2023-01-02T07:24:13.911Z,12.73
2023-01-02T07:26:18.346Z,12.85
2023-01-02T07:28:22.541Z,11.90
2023-01-02T07:30:26.142Z,13.60
2023-01-02T07:32:31.149Z,12.35
2023-01-02T07:34:34.417Z,12.27
2023-01-02T07:36:37.727Z,11.85
2023-01-02T07:38:41.326Z,11.73
2023-01-02T07:40:45.086Z,12.55
2023-01-02T07:42:48.808Z,13.32
2023-01-02T07:44:52.425Z,11.55
2023-01-02T07:46:55.728Z,12.57
2023-01-02T07:49:00.363Z,11.57
2023-01-02T07:51:05.163Z,11.68
2023-01-02T07:53:08.680Z,11.52
2023-01-02T07:55:12.322Z,12.07
2023-01-02T07:57:15.790Z,11.05
2023-01-02T07:59:19.431Z,11.80
2023-01-02T08:01:23.534Z,10.98
2023-01-02T08:03:27.244Z,12.20
2023-01-02T08:05:35.034Z,12.25
2023-01-02T08:07:44.661Z,11.45
2023-01-02T08:09:48.890Z,11.13
2023-01-02T08:11:52.379Z,10.90
2023-01-02T08:13:56.256Z,10.88
2023-01-02T08:16:00.022Z,11.63
2023-01-02T08:18:03.687Z,10.95
2023-01-02T08:20:09.162Z,11.38
2023-01-02T08:22:14.222Z,10.85
2023-01-02T08:24:17.962Z,10.07
2023-01-02T08:26:23.636Z,10.18
2023-01-02T08:28:27.833Z,9.82
2023-01-02T08:30:31.698Z,11.32
2023-01-02T08:32:38.487Z,11.45
2023-01-02T08:34:42.051Z,11.43
2023-01-02T08:36:46.404Z,10.52
2023-01-02T08:38:51.714Z,10.57
2023-01-02T08:40:55.369Z,10.93
2023-01-02T08:42:58.999Z,9.75
2023-01-02T08:45:02.701Z,10.43
2023-01-02T08:47:06.600Z,9.65
2023-01-02T08:49:10.064Z,9.52
2023-01-02T08:51:13.682Z,9.07
2023-01-02T08:53:17.414Z,8.57
2023-01-02T08:55:22.529Z,9.23
2023-01-02T08:57:26.275Z,8.88
2023-01-02T08:59:29.977Z,8.48
2023-01-02T09:01:34.676Z,7.80
2023-01-02T09:03:38.471Z,6.03
2023-01-02T09:05:42.256Z,6.35
2023-01-02T09:07:45.951Z,5.97
2023-01-02T09:09:50.283Z,6.03
2023-01-02T09:11:55.160Z,5.50
2023-01-02T09:14:00.381Z,6.00
2023-01-02T09:16:03.962Z,6.32
2023-01-02T09:18:07.769Z,5.47
2023-01-02T09:20:11.664Z,5.10
2023-01-02T09:22:15.286Z,5.13
2023-01-02T09:24:19.567Z,4.97
2023-01-02T09:26:23.508Z,5.00
2023-01-02T09:28:29.124Z,5.50
2023-01-02T09:30:32.797Z,5.10
2023-01-02T09:32:37.489Z,5.10
2023-01-02T09:34:40.870Z,4.97
2023-01-02T09:36:44.329Z,3.55
2023-01-02T09:38:52.540Z,4.63
2023-01-02T09:40:56.789Z,3.42
2023-01-02T09:43:01.675Z,3.85
2023-01-02T09:45:09.283Z,3.25
2023-01-02T09:47:17.121Z,3.42
2023-01-02T09:49:23.346Z,4.07
2023-01-02T09:51:27.679Z,3.25
2023-01-02T09:53:32.480Z,3.40
2023-01-02T09:55:45.318Z,3.33
2023-01-02T09:57:56.451Z,3.70
2023-01-02T10:00:07.378Z,3.78
2023-01-02T10:02:27.860Z,3.70
2023-01-02T10:04:49.821Z,8.02
2023-01-02T10:07:00.189Z,3.40
2023-01-02T10:09:10.220Z,3.58
2023-01-02T10:11:33.544Z,3.22
2023-01-02T10:16:13.680Z,3.65
2023-01-02T10:18:24.747Z,3.58
2023-01-02T10:20:36.429Z,3.60
2023-01-02T10:22:44.477Z,4.00
2023-01-02T10:24:54.391Z,3.72
2023-01-02T10:26:59.834Z,3.05
2023-01-02T10:29:11.815Z,2.83
2023-01-02T10:31:25.116Z,2.47
2023-01-02T10:35:40.520Z,2.50
2023-01-02T10:37:44.244Z,2.58
2023-01-02T10:39:51.442Z,2.40
2023-01-02T10:41:57.802Z,2.33
2023-01-02T10:44:03.966Z,2.17
2023-01-02T10:46:08.186Z,2.22
2023-01-02T10:48:13.874Z,2.00
2023-01-02T10:50:21.840Z,2.13
2023-01-02T10:52:30.978Z,2.55
2023-01-02T10:54:58.563Z,2.00
2023-01-02T10:57:03.457Z,2.08
2023-01-02T10:59:21.697Z,2.45
2023-01-02T11:01:25.961Z,3.38
2023-01-02T11:03:32.486Z,4.10
2023-01-02T11:05:45.081Z,4.90
2023-01-02T11:07:51.229Z,4.95
2023-01-02T11:09:57.330Z,4.68
2023-01-02T11:12:10.613Z,4.35
2023-01-02T11:14:16.529Z,4.90
2023-01-02T11:16:21.664Z,5.63
2023-01-02T11:18:27.960Z,5.35
2023-01-02T11:20:36.567Z,5.30
2023-01-02T11:22:40.982Z,4.43
2023-01-02T11:25:00.613Z,4.82
2023-01-02T11:27:08.207Z,6.95
2023-01-02T11:29:17.480Z,7.25
2023-01-02T11:31:22.595Z,6.85
2023-01-02T11:33:31.473Z,7.60
2023-01-02T11:35:40.363Z,6.68
2023-01-02T11:37:53.172Z,7.25
2023-01-02T11:40:02.072Z,7.15
2023-01-02T11:42:35.589Z,6.57
2023-01-02T11:44:51.595Z,7.13
2023-01-02T11:46:56.925Z,7.20
2023-01-02T11:49:05.299Z,7.00
2023-01-02T11:51:17.710Z,6.55
2023-01-02T11:53:25.863Z,6.78
2023-01-02T11:55:41.536Z,6.10
2023-01-02T11:57:50.973Z,7.18
2023-01-02T11:59:57.005Z,7.70
2023-01-02T12:02:07.092Z,6.82
2023-01-02T12:04:11.217Z,7.07
2023-01-02T12:06:21.255Z,8.05
2023-01-02T12:08:40.506Z,7.65
2023-01-02T12:10:59.841Z,7.60
2023-01-02T12:13:27.376Z,7.43
2023-01-02T12:15:48.742Z,7.57
2023-01-02T12:18:00.659Z,8.13
2023-01-02T12:20:24.535Z,8.95
2023-01-02T12:22:55.149Z,7.57
2023-01-02T12:25:23.238Z,6.60
2023-01-02T12:27:35.640Z,6.45
2023-01-02T12:29:51.959Z,6.53
2023-01-02T12:32:28.188Z,6.43
2023-01-02T12:34:50.438Z,6.35
2023-01-02T12:37:08.020Z,6.38
2023-01-02T12:39:52.089Z,7.43
2023-01-02T12:42:10.155Z,6.82
2023-01-02T12:44:28.510Z,6.32
2023-01-02T12:47:04.785Z,5.38
2023-01-02T12:49:25.972Z,5.32
2023-01-02T12:51:37.619Z,6.20
2023-01-02T12:54:19.650Z,4.57
2023-01-02T12:56:39.361Z,5.22
2023-01-02T12:58:58.482Z,2.80
2023-01-02T13:01:11.735Z,2.83
2023-01-02T13:03:46.204Z,4.68
2023-01-02T13:05:54.455Z,1.73
2023-01-02T13:08:03.244Z,3.03
2023-01-02T13:10:08.982Z,2.00
2023-01-02T13:12:16.363Z,1.30
2023-01-02T13:14:25.191Z,1.30
2023-01-02T13:16:29.374Z,1.00
2023-01-02T13:19:00.024Z,1.35
2023-01-02T13:21:13.642Z,1.30
2023-01-02T13:23:30.873Z,1.23
2023-01-02T13:25:38.911Z,1.23
2023-01-02T13:27:46.466Z,1.20
2023-01-02T13:29:51.469Z,1.50
2023-01-02T13:31:57.234Z,1.20
2023-01-02T13:34:08.977Z,0.80
2023-01-02T13:36:20.908Z,1.10
2023-01-02T13:38:28.741Z,0.93
2023-01-02T13:40:34.375Z,1.30
2023-01-02T13:42:56.647Z,1.67
2023-01-02T13:45:02.090Z,1.70
2023-01-02T13:47:17.796Z,1.70
2023-01-02T13:49:25.885Z,1.85
2023-01-02T13:51:33.554Z,1.90
2023-01-02T13:53:43.006Z,1.60
2023-01-02T13:56:09.377Z,1.95
2023-01-02T13:58:40.888Z,1.88
2023-01-02T14:00:53.926Z,3.60
2023-01-02T14:03:34.195Z,1.40
2023-01-02T14:06:00.482Z,1.05
2023-01-02T14:08:25.795Z,1.27
2023-01-02T14:10:45.385Z,1.30
2023-01-02T14:12:53.786Z,1.25
2023-01-02T14:14:57.975Z,1.55
2023-01-02T14:17:17.221Z,1.40
2023-01-02T14:19:24.025Z,1.00
2023-01-02T14:21:35.372Z,1.15
2023-01-02T14:24:16.427Z,1.23
2023-01-02T14:26:23.445Z,1.88
2023-01-02T14:28:29.845Z,1.80
2023-01-02T14:30:36.713Z,2.00
2023-01-02T14:32:44.523Z,1.98
2023-01-02T14:34:51.451Z,1.60
2023-01-02T14:36:58.197Z,1.10
2023-01-02T14:39:01.830Z,0.80
2023-01-02T14:41:19.222Z,1.88
2023-01-02T14:43:32.273Z,1.38
2023-01-02T14:45:41.896Z,1.70
2023-01-02T14:47:52.163Z,2.25
2023-01-02T14:49:59.783Z,2.05
2023-01-02T14:52:07.983Z,2.00
2023-01-02T14:54:16.733Z,1.55
2023-01-02T14:56:23.169Z,1.80
2023-01-02T14:58:38.533Z,2.25
2023-01-02T15:00:46.622Z,1.30
2023-01-02T15:02:56.020Z,1.60
2023-01-02T15:05:07.322Z,1.30
2023-01-02T15:07:14.832Z,1.38
2023-01-02T15:09:28.599Z,2.95
2023-01-02T15:11:49.236Z,1.77
2023-01-02T15:14:04.159Z,2.00
2023-01-02T15:16:11.512Z,1.75
2023-01-02T15:18:21.742Z,1.67
2023-01-02T15:20:28.752Z,2.28
2023-01-02T15:22:32.510Z,26.25
2023-01-02T15:24:35.891Z,8.05
2023-01-02T15:26:40.218Z,2.92
2023-01-02T15:28:43.509Z,2.33
2023-01-02T15:30:47.232Z,1.77
2023-01-02T15:32:51.003Z,1.67
2023-01-02T15:35:11.282Z,2.45
2023-01-02T15:37:15.127Z,3.50
2023-01-02T15:39:21.516Z,5.75
2023-01-02T15:41:29.752Z,13.60
2023-01-02T15:43:53.806Z,20.27
2023-01-02T15:45:58.385Z,8.65
2023-01-02T15:48:03.462Z,26.45
2023-01-02T15:50:16.137Z,32.88
2023-01-02T15:52:23.866Z,12.40
2023-01-02T15:54:28.878Z,196.18
2023-01-02T15:56:34.103Z,8.27
2023-01-02T15:58:38.229Z,9.10
2023-01-02T16:00:42.766Z,30.45
2023-01-02T16:02:47.238Z,5.05
2023-01-02T16:05:09.938Z,8.25
2023-01-02T16:07:28.019Z,43.10
2023-01-02T16:09:33.385Z,3.30
2023-01-02T16:11:47.085Z,3.60
2023-01-02T16:14:13.452Z,7.80
2023-01-02T16:16:18.243Z,10.80
2023-01-02T16:18:22.175Z,4.18
2023-01-02T16:20:29.923Z,18.90
2023-01-02T16:22:42.770Z,7.65
2023-01-02T16:24:51.085Z,2.00
2023-01-02T16:26:54.929Z,3.90
2023-01-02T16:28:59.142Z,4.07
2023-01-02T16:31:11.155Z,3.15
2023-01-02T16:33:23.704Z,4.20
2023-01-02T16:35:31.466Z,3.28
2023-01-02T16:37:38.171Z,3.53
2023-01-02T16:39:45.377Z,6.32
2023-01-02T16:42:13.501Z,6.38
2023-01-02T16:44:20.620Z,11.95
2023-01-02T16:46:24.454Z,4.20
2023-01-02T16:48:30.343Z,5.18
2023-01-02T16:50:41.575Z,5.03
2023-01-02T16:52:46.138Z,11.00
2023-01-02T16:54:54.109Z,13.55
2023-01-02T16:56:58.135Z,54.25
2023-01-02T16:59:02.206Z,50.10
2023-01-02T17:01:07.592Z,26.98
2023-01-02T17:03:17.645Z,40.50
2023-01-02T17:05:27.241Z,20.42
2023-01-02T17:07:32.370Z,22.30
2023-01-02T17:09:36.187Z,22.10
2023-01-02T17:12:00.503Z,27.23
2023-01-02T17:14:04.551Z,32.75
2023-01-02T17:16:09.265Z,53.50
2023-01-02T17:18:14.115Z,91.90
2023-01-02T17:20:18.327Z,107.00
2023-01-02T17:22:22.211Z,45.40
2023-01-02T17:24:27.573Z,42.42
2023-01-02T17:26:31.167Z,98.97
2023-01-02T17:28:34.976Z,71.10
2023-01-02T17:30:39.114Z,44.83
2023-01-02T17:32:44.139Z,33.67
2023-01-02T17:34:48.592Z,25.65
2023-01-02T17:36:53.246Z,33.97
2023-01-02T17:38:57.013Z,32.25
2023-01-02T17:41:02.325Z,32.17
2023-01-02T17:43:06.521Z,30.83
2023-01-02T17:45:11.347Z,25.15
2023-01-02T17:47:57.216Z,21.60
2023-01-02T17:49:40.702Z,18.90
2023-01-02T17:51:44.472Z,21.05
2023-01-02T17:53:48.630Z,21.38
2023-01-02T17:56:21.468Z,26.33
2023-01-02T17:58:18.919Z,29.00
2023-01-02T18:00:23.846Z,48.25
2023-01-02T18:02:28.085Z,35.13
2023-01-02T18:04:31.913Z,34.70
2023-01-02T18:06:35.567Z,24.30
2023-01-02T18:08:39.224Z,27.35
2023-01-02T18:10:43.564Z,32.13
2023-01-02T18:12:47.262Z,42.85
2023-01-02T18:14:52.729Z,48.22
2023-01-02T18:16:57.655Z,25.23
2023-01-02T18:19:04.565Z,22.90
2023-01-02T18:21:12.675Z,23.70
2023-01-02T18:23:16.871Z,24.52
2023-01-02T18:25:24.576Z,20.63
2023-01-02T18:27:32.881Z,25.25
2023-01-02T18:29:36.868Z,36.97
2023-01-02T18:31:45.637Z,39.28
2023-01-02T18:33:50.696Z,42.83
2023-01-02T18:36:00.489Z,43.15
2023-01-02T18:38:15.687Z,43.35
2023-01-02T18:40:27.802Z,46.72
2023-01-02T18:42:35.014Z,45.63
2023-01-02T18:44:41.249Z,39.85
2023-01-02T18:47:03.299Z,44.15
2023-01-02T18:49:16.626Z,42.47
2023-01-02T18:51:25.930Z,41.03
2023-01-02T18:53:36.336Z,42.03
2023-01-02T18:55:41.132Z,33.55
2023-01-02T18:57:48.184Z,44.92
2023-01-02T18:59:53.959Z,46.17
2023-01-02T19:02:03.557Z,43.28
2023-01-02T19:04:30.813Z,42.28
2023-01-02T19:06:46.021Z,42.63
2023-01-02T19:08:51.925Z,45.55
2023-01-02T19:11:21.595Z,43.35
2023-01-02T19:13:27.919Z,53.80
2023-01-02T19:15:42.412Z,46.33
2023-01-02T19:17:49.370Z,38.40
2023-01-02T19:19:57.344Z,28.42
2023-01-02T19:22:03.027Z,25.08
2023-01-02T19:24:18.254Z,30.75
2023-01-02T19:26:28.062Z,30.58
2023-01-02T19:28:34.856Z,25.90
2023-01-02T19:30:41.000Z,24.65
2023-01-02T19:32:46.227Z,18.00
2023-01-02T19:34:53.906Z,14.55
2023-01-02T19:37:10.746Z,12.20
2023-01-02T19:39:27.387Z,14.10
2023-01-02T19:41:48.737Z,14.93
2023-01-02T19:43:55.230Z,16.60
2023-01-02T19:46:02.044Z,11.88
2023-01-02T19:48:12.527Z,14.15
2023-01-02T19:50:24.507Z,12.55
2023-01-02T19:52:34.839Z,12.93
2023-01-02T19:54:40.251Z,10.45
2023-01-02T19:56:45.475Z,11.15
2023-01-02T19:58:50.372Z,12.00
2023-01-02T20:00:54.666Z,15.15
2023-01-02T20:02:59.485Z,14.50
2023-01-02T20:05:04.107Z,30.42
2023-01-02T20:07:10.872Z,29.00
2023-01-02T20:09:16.651Z,28.27
2023-01-02T20:11:38.289Z,25.50
2023-01-02T20:13:45.636Z,25.77
2023-01-02T20:15:51.056Z,35.72
2023-01-02T20:17:56.775Z,23.38
2023-01-02T20:20:02.060Z,60.65
2023-01-02T20:22:07.633Z,41.47
2023-01-02T20:24:14.000Z,33.58
2023-01-02T20:26:18.308Z,41.63
2023-01-02T20:28:24.887Z,40.70
2023-01-02T20:30:30.398Z,40.65
2023-01-02T20:32:34.958Z,46.28
2023-01-02T20:34:42.181Z,52.50
2023-01-02T20:36:47.415Z,45.95
2023-01-02T20:38:52.969Z,38.75
2023-01-02T20:40:58.619Z,38.78
2023-01-02T20:43:06.021Z,35.67
2023-01-02T20:45:11.764Z,70.10
2023-01-02T20:47:18.348Z,58.25
2023-01-02T20:49:25.502Z,64.20
2023-01-02T20:51:34.452Z,42.83
2023-01-02T20:53:40.673Z,29.50
2023-01-02T20:55:46.146Z,32.22
2023-01-02T20:57:53.485Z,31.95
2023-01-02T20:59:59.254Z,24.42
2023-01-02T21:02:04.304Z,25.85
2023-01-02T21:04:10.206Z,25.98
2023-01-02T21:06:15.294Z,38.45
2023-01-02T21:08:20.536Z,27.60
2023-01-02T21:10:25.075Z,19.85
2023-01-02T21:12:47.266Z,32.15
2023-01-02T21:14:53.294Z,37.33
2023-01-02T21:16:58.876Z,26.90
2023-01-02T21:19:05.969Z,37.70
2023-01-02T21:21:12.368Z,22.23
2023-01-02T21:23:17.880Z,6.07
2023-01-02T21:25:22.571Z,6.60
2023-01-02T21:27:27.551Z,7.55
2023-01-02T21:29:31.907Z,8.07
2023-01-02T21:31:38.777Z,9.10
2023-01-02T21:33:43.509Z,6.53
2023-01-02T21:35:50.405Z,5.30
2023-01-02T21:37:54.884Z,1.88
2023-01-02T21:39:59.634Z,2.45
2023-01-02T21:42:19.821Z,2.05
2023-01-02T21:44:24.341Z,2.25
2023-01-02T21:46:28.829Z,2.33
2023-01-02T21:48:35.373Z,2.25
2023-01-02T21:50:40.149Z,2.33
2023-01-02T21:52:44.508Z,2.33
2023-01-02T21:54:49.603Z,2.40
2023-01-02T21:56:54.817Z,2.25
2023-01-02T21:58:59.878Z,1.48
2023-01-02T22:01:04.087Z,1.00
2023-01-02T22:03:09.593Z,1.67
2023-01-02T22:05:19.343Z,1.02
2023-01-02T22:07:36.962Z,0.73
2023-01-02T22:09:44.804Z,0.75
2023-01-02T22:11:58.221Z,0.60
2023-01-02T22:16:07.363Z,1.20
2023-01-02T22:18:11.843Z,0.98
2023-01-02T22:20:18.807Z,1.00
2023-01-02T22:22:23.048Z,0.90
2023-01-02T22:24:28.632Z,1.58
2023-01-02T22:26:36.577Z,1.45
2023-01-02T22:28:43.298Z,1.80
2023-01-02T22:30:48.218Z,1.42
2023-01-02T22:32:53.320Z,1.33
2023-01-02T22:34:57.886Z,1.63
2023-01-02T22:37:04.606Z,5.05
2023-01-02T22:39:27.679Z,3.42
2023-01-02T22:41:32.613Z,6.00
2023-01-02T22:43:39.485Z,5.75
2023-01-02T22:45:46.643Z,2.70
2023-01-02T22:47:51.393Z,4.40
2023-01-02T22:49:57.014Z,2.80
2023-01-02T22:52:08.058Z,3.58
2023-01-02T22:54:16.780Z,1.42
2023-01-02T22:56:24.251Z,2.25
2023-01-02T22:58:28.651Z,0.70
2023-01-02T23:00:32.521Z,2.13
2023-01-02T23:02:36.445Z,1.38
2023-01-02T23:04:40.396Z,1.08
2023-01-02T23:07:13.627Z,1.05
2023-01-02T23:09:08.683Z,1.25
2023-01-02T23:11:15.131Z,1.25
2023-01-02T23:13:19.006Z,1.83
2023-01-02T23:15:22.961Z,9.50
2023-01-02T23:17:44.499Z,16.30
2023-01-02T23:19:47.343Z,9.85
2023-01-02T23:21:53.135Z,3.97
2023-01-02T23:23:57.215Z,5.65
2023-01-02T23:26:01.029Z,3.00
2023-01-02T23:28:07.429Z,6.88
2023-01-02T23:30:12.669Z,3.25
2023-01-02T23:32:16.996Z,4.20
2023-01-02T23:34:23.680Z,4.55
2023-01-02T23:36:27.740Z,3.17
2023-01-02T23:38:34.337Z,3.85
2023-01-02T23:40:38.266Z,3.85
2023-01-02T23:42:42.091Z,3.10
2023-01-02T23:44:49.600Z,3.22
2023-01-02T23:46:54.606Z,1.80
2023-01-02T23:49:00.176Z,3.60
2023-01-02T23:51:06.949Z,3.60
2023-01-02T23:53:10.964Z,2.63
2023-01-02T23:55:14.841Z,2.20
2023-01-02T23:57:19.069Z,2.10
2023-01-02T23:59:25.228Z,1.80
